sensor_id;sensor_type;location;lat;lon;timestamp;pressure;altitude;pressure_sealevel;temperature;humidity
33554;BME280;19885;42.208;24.952;2023-02-23T00:01:21;99825.72;;;7.13;83.38
33554;BME280;19885;42.208;24.952;2023-02-23T00:03:48;99836.19;;;7.20;83.84
33554;BME280;19885;42.208;24.952;2023-02-23T00:06:17;99831.75;;;7.13;83.58
33554;BME280;19885;42.208;24.952;2023-02-23T00:08:43;99832.28;;;6.97;83.63
33554;BME280;19885;42.208;24.952;2023-02-23T00:11:13;99830.25;;;6.81;84.67
33554;BME280;19885;42.208;24.952;2023-02-23T00:13:41;99834.03;;;6.98;83.86
33554;BME280;19885;42.208;24.952;2023-02-23T00:16:09;99831.25;;;7.33;83.04
33554;BME280;19885;42.208;24.952;2023-02-23T00:18:41;99827.06;;;7.87;80.25
33554;BME280;19885;42.208;24.952;2023-02-23T00:21:14;99829.41;;;7.72;79.75
33554;BME280;19885;42.208;24.952;2023-02-23T00:23:50;99791.22;;;7.17;81.45
33554;BME280;19885;42.208;24.952;2023-02-23T00:26:24;99831.38;;;7.39;81.31
33554;BME280;19885;42.208;24.952;2023-02-23T00:28:52;99817.56;;;7.40;80.41
33554;BME280;19885;42.208;24.952;2023-02-23T00:31:23;99835.56;;;7.78;79.39
33554;BME280;19885;42.208;24.952;2023-02-23T00:33:52;99838.59;;;8.06;78.30
33554;BME280;19885;42.208;24.952;2023-02-23T00:36:21;99847.81;;;7.87;78.15
33554;BME280;19885;42.208;24.952;2023-02-23T00:38:51;99842.41;;;7.75;78.48
33554;BME280;19885;42.208;24.952;2023-02-23T00:41:17;99837.25;;;7.76;79.03
33554;BME280;19885;42.208;24.952;2023-02-23T00:44:02;99843.69;;;8.00;78.13
33554;BME280;19885;42.208;24.952;2023-02-23T00:46:29;99832.78;;;8.20;77.03
33554;BME280;19885;42.208;24.952;2023-02-23T00:48:56;99842.56;;;8.36;76.18
33554;BME280;19885;42.208;24.952;2023-02-23T00:51:28;99836.59;;;8.40;75.53
33554;BME280;19885;42.208;24.952;2023-02-23T00:53:59;99840.09;;;8.42;75.25
33554;BME280;19885;42.208;24.952;2023-02-23T00:56:26;99839.94;;;8.33;75.16
33554;BME280;19885;42.208;24.952;2023-02-23T00:58:52;99845.16;;;8.33;75.53
33554;BME280;19885;42.208;24.952;2023-02-23T01:01:18;99848.59;;;8.34;75.26
33554;BME280;19885;42.208;24.952;2023-02-23T01:03:46;99846.78;;;8.28;74.89
33554;BME280;19885;42.208;24.952;2023-02-23T01:06:13;99833.41;;;8.06;73.96
33554;BME280;19885;42.208;24.952;2023-02-23T01:08:46;99846.47;;;8.10;74.46
33554;BME280;19885;42.208;24.952;2023-02-23T01:11:17;99841.94;;;7.97;74.62
33554;BME280;19885;42.208;24.952;2023-02-23T01:13:46;99847.81;;;7.88;75.35
33554;BME280;19885;42.208;24.952;2023-02-23T01:16:15;99852.31;;;7.97;75.64
33554;BME280;19885;42.208;24.952;2023-02-23T01:18:42;99853.09;;;7.93;75.16
33554;BME280;19885;42.208;24.952;2023-02-23T01:21:20;99853.94;;;7.92;75.57
33554;BME280;19885;42.208;24.952;2023-02-23T01:23:47;99858.97;;;7.83;75.66
33554;BME280;19885;42.208;24.952;2023-02-23T01:26:24;99854.63;;;7.82;75.67
33554;BME280;19885;42.208;24.952;2023-02-23T01:28:54;99852.00;;;7.79;76.04
33554;BME280;19885;42.208;24.952;2023-02-23T01:31:22;99859.72;;;7.77;75.48
33554;BME280;19885;42.208;24.952;2023-02-23T01:33:52;99848.38;;;7.69;75.76
33554;BME280;19885;42.208;24.952;2023-02-23T01:36:18;99862.97;;;7.66;75.60
33554;BME280;19885;42.208;24.952;2023-02-23T01:38:44;99846.34;;;7.55;75.77
33554;BME280;19885;42.208;24.952;2023-02-23T01:41:09;99856.88;;;7.62;75.76
33554;BME280;19885;42.208;24.952;2023-02-23T01:46:41;99868.13;;;7.63;75.68
33554;BME280;19885;42.208;24.952;2023-02-23T01:49:11;99862.88;;;7.60;75.95
33554;BME280;19885;42.208;24.952;2023-02-23T01:51:42;99869.03;;;7.65;76.06
33554;BME280;19885;42.208;24.952;2023-02-23T01:54:13;99866.19;;;7.53;75.97
33554;BME280;19885;42.208;24.952;2023-02-23T01:56:44;99864.47;;;7.52;76.29
33554;BME280;19885;42.208;24.952;2023-02-23T01:59:13;99862.53;;;7.42;76.41
33554;BME280;19885;42.208;24.952;2023-02-23T02:01:40;99864.34;;;7.46;76.25
33554;BME280;19885;42.208;24.952;2023-02-23T02:04:07;99862.53;;;7.42;76.31
33554;BME280;19885;42.208;24.952;2023-02-23T02:06:35;99864.22;;;7.40;76.77
33554;BME280;19885;42.208;24.952;2023-02-23T02:09:07;99864.97;;;7.34;77.26
33554;BME280;19885;42.208;24.952;2023-02-23T02:11:35;99870.75;;;7.21;77.70
33554;BME280;19885;42.208;24.952;2023-02-23T02:14:06;99805.97;;;6.76;77.41
33554;BME280;19885;42.208;24.952;2023-02-23T02:16:41;99866.22;;;7.11;77.73
33554;BME280;19885;42.208;24.952;2023-02-23T02:33:45;99874.91;;;6.73;76.95
33554;BME280;19885;42.208;24.952;2023-02-23T02:42:16;99874.47;;;6.53;76.90
33554;BME280;19885;42.208;24.952;2023-02-23T02:45:02;99874.28;;;6.44;77.43
33554;BME280;19885;42.208;24.952;2023-02-23T02:47:46;99872.59;;;6.46;77.31
33554;BME280;19885;42.208;24.952;2023-02-23T02:50:34;99855.72;;;6.24;77.50
33554;BME280;19885;42.208;24.952;2023-02-23T02:53:06;99884.41;;;6.35;77.07
33554;BME280;19885;42.208;24.952;2023-02-23T02:55:34;99882.66;;;6.34;77.43
33554;BME280;19885;42.208;24.952;2023-02-23T02:58:04;99881.94;;;6.39;77.39
33554;BME280;19885;42.208;24.952;2023-02-23T03:00:41;99879.38;;;6.41;77.69
33554;BME280;19885;42.208;24.952;2023-02-23T03:03:29;99891.34;;;6.36;76.50
33554;BME280;19885;42.208;24.952;2023-02-23T03:06:15;99868.75;;;6.29;77.11
33554;BME280;19885;42.208;24.952;2023-02-23T03:12:44;99896.34;;;6.30;77.59
33554;BME280;19885;42.208;24.952;2023-02-23T03:15:12;99902.06;;;6.17;77.56
33554;BME280;19885;42.208;24.952;2023-02-23T03:21:05;99902.06;;;6.17;77.49
33554;BME280;19885;42.208;24.952;2023-02-23T03:24:10;99897.69;;;6.13;77.28
33554;BME280;19885;42.208;24.952;2023-02-23T03:27:06;99882.84;;;6.06;77.27
33554;BME280;19885;42.208;24.952;2023-02-23T03:29:58;99911.44;;;6.13;77.53
33554;BME280;19885;42.208;24.952;2023-02-23T03:35:38;99915.66;;;6.08;77.79
33554;BME280;19885;42.208;24.952;2023-02-23T03:38:35;99912.88;;;6.01;77.94
33554;BME280;19885;42.208;24.952;2023-02-23T03:41:23;99906.69;;;5.94;77.25
33554;BME280;19885;42.208;24.952;2023-02-23T03:44:13;99907.91;;;5.77;77.81
33554;BME280;19885;42.208;24.952;2023-02-23T03:47:00;99862.56;;;5.57;77.58
33554;BME280;19885;42.208;24.952;2023-02-23T03:49:48;99915.53;;;5.72;78.31
33554;BME280;19885;42.208;24.952;2023-02-23T03:52:55;99903.44;;;5.70;77.82
33554;BME280;19885;42.208;24.952;2023-02-23T03:55:45;99913.66;;;5.65;78.67
33554;BME280;19885;42.208;24.952;2023-02-23T03:58:53;99923.09;;;5.65;78.61
33554;BME280;19885;42.208;24.952;2023-02-23T04:01:39;99913.31;;;5.53;78.57
33554;BME280;19885;42.208;24.952;2023-02-23T04:04:24;99913.31;;;5.53;78.48
33554;BME280;19885;42.208;24.952;2023-02-23T04:07:13;99914.84;;;5.47;79.01
33554;BME280;19885;42.208;24.952;2023-02-23T04:09:59;99924.34;;;5.48;78.22
33554;BME280;19885;42.208;24.952;2023-02-23T04:12:59;99907.63;;;5.35;79.00
33554;BME280;19885;42.208;24.952;2023-02-23T04:16:04;99913.16;;;5.47;79.59
33554;BME280;19885;42.208;24.952;2023-02-23T04:18:36;99910.56;;;5.47;79.14
33554;BME280;19885;42.208;24.952;2023-02-23T04:21:03;99917.56;;;5.51;79.21
33554;BME280;19885;42.208;24.952;2023-02-23T04:23:29;99904.38;;;5.42;79.30
33554;BME280;19885;42.208;24.952;2023-02-23T04:25:55;99906.97;;;5.42;79.35
33554;BME280;19885;42.208;24.952;2023-02-23T04:28:22;99908.59;;;5.39;78.54
33554;BME280;19885;42.208;24.952;2023-02-23T04:30:49;99910.34;;;5.40;79.48
33554;BME280;19885;42.208;24.952;2023-02-23T04:33:16;99921.50;;;5.39;79.62
33554;BME280;19885;42.208;24.952;2023-02-23T04:35:42;99902.31;;;5.29;79.34
33554;BME280;19885;42.208;24.952;2023-02-23T04:38:07;99903.22;;;5.31;79.53
33554;BME280;19885;42.208;24.952;2023-02-23T04:40:33;99919.94;;;5.44;79.30
33554;BME280;19885;42.208;24.952;2023-02-23T04:42:59;99936.56;;;5.53;79.41
33554;BME280;19885;42.208;24.952;2023-02-23T04:45:25;99921.72;;;5.46;79.05
33554;BME280;19885;42.208;24.952;2023-02-23T04:47:51;99915.41;;;5.37;79.29
33554;BME280;19885;42.208;24.952;2023-02-23T04:50:17;99913.94;;;5.45;79.41
33554;BME280;19885;42.208;24.952;2023-02-23T04:52:43;99936.47;;;5.50;78.84
33554;BME280;19885;42.208;24.952;2023-02-23T04:55:18;99907.53;;;5.32;78.79
33554;BME280;19885;42.208;24.952;2023-02-23T04:57:44;99935.44;;;5.44;78.01
33554;BME280;19885;42.208;24.952;2023-02-23T05:00:11;99933.56;;;5.38;78.48
33554;BME280;19885;42.208;24.952;2023-02-23T05:02:37;99910.97;;;5.31;78.75
33554;BME280;19885;42.208;24.952;2023-02-23T05:05:06;99943.03;;;5.38;78.82
33554;BME280;19885;42.208;24.952;2023-02-23T05:07:32;99941.09;;;5.31;78.86
33554;BME280;19885;42.208;24.952;2023-02-23T05:09:58;99936.81;;;5.31;79.20
33554;BME280;19885;42.208;24.952;2023-02-23T05:12:24;99937.66;;;5.32;79.50
33554;BME280;19885;42.208;24.952;2023-02-23T05:14:53;99941.25;;;5.37;79.50
33554;BME280;19885;42.208;24.952;2023-02-23T05:17:18;99919.41;;;5.26;78.80
33554;BME280;19885;42.208;24.952;2023-02-23T05:19:44;99860.00;;;4.96;78.85
33554;BME280;19885;42.208;24.952;2023-02-23T05:22:10;99960.59;;;5.51;78.57
33554;BME280;19885;42.208;24.952;2023-02-23T05:24:40;99962.19;;;5.46;79.52
33554;BME280;19885;42.208;24.952;2023-02-23T05:27:08;99936.09;;;5.37;78.93
33554;BME280;19885;42.208;24.952;2023-02-23T05:29:34;99961.66;;;5.57;78.73
33554;BME280;19885;42.208;24.952;2023-02-23T05:32:00;99963.47;;;5.61;77.62
33554;BME280;19885;42.208;24.952;2023-02-23T05:34:26;99973.91;;;5.64;78.10
33554;BME280;19885;42.208;24.952;2023-02-23T05:36:52;99974.00;;;5.67;78.01
33554;BME280;19885;42.208;24.952;2023-02-23T05:39:21;99974.00;;;5.67;78.24
33554;BME280;19885;42.208;24.952;2023-02-23T05:41:46;99987.09;;;5.73;77.71
33554;BME280;19885;42.208;24.952;2023-02-23T05:44:12;99993.03;;;5.69;77.60
33554;BME280;19885;42.208;24.952;2023-02-23T05:46:38;99988.50;;;5.62;77.59
33554;BME280;19885;42.208;24.952;2023-02-23T05:49:04;99994.75;;;5.70;77.41
33554;BME280;19885;42.208;24.952;2023-02-23T05:51:31;99994.75;;;5.70;77.53
33554;BME280;19885;42.208;24.952;2023-02-23T05:53:59;100004.28;;;5.71;77.06
33554;BME280;19885;42.208;24.952;2023-02-23T05:56:25;100009.72;;;5.82;77.87
33554;BME280;19885;42.208;24.952;2023-02-23T05:58:53;100009.91;;;5.87;76.97
33554;BME280;19885;42.208;24.952;2023-02-23T06:01:21;100023.13;;;5.97;77.50
33554;BME280;19885;42.208;24.952;2023-02-23T06:03:47;100022.38;;;6.01;77.42
33554;BME280;19885;42.208;24.952;2023-02-23T06:06:13;100018.41;;;6.14;77.41
33554;BME280;19885;42.208;24.952;2023-02-23T06:08:39;100026.69;;;6.33;76.79
33554;BME280;19885;42.208;24.952;2023-02-23T06:11:07;100022.63;;;6.43;76.88
33554;BME280;19885;42.208;24.952;2023-02-23T06:13:35;99875.69;;;5.64;77.53
33554;BME280;19885;42.208;24.952;2023-02-23T06:16:02;100024.94;;;6.67;77.16
33554;BME280;19885;42.208;24.952;2023-02-23T06:18:29;100019.13;;;6.75;77.15
33554;BME280;19885;42.208;24.952;2023-02-23T06:20:57;100035.16;;;6.95;77.52
33554;BME280;19885;42.208;24.952;2023-02-23T06:23:24;100031.91;;;7.03;77.43
33554;BME280;19885;42.208;24.952;2023-02-23T06:25:50;100030.34;;;7.11;77.70
33554;BME280;19885;42.208;24.952;2023-02-23T06:28:15;100033.31;;;7.27;77.01
33554;BME280;19885;42.208;24.952;2023-02-23T06:30:41;100036.28;;;7.45;77.34
33554;BME280;19885;42.208;24.952;2023-02-23T06:33:06;100038.28;;;7.56;76.61
33554;BME280;19885;42.208;24.952;2023-02-23T06:35:33;100037.78;;;7.74;76.55
33554;BME280;19885;42.208;24.952;2023-02-23T06:38:00;100028.28;;;7.74;76.70
33554;BME280;19885;42.208;24.952;2023-02-23T06:40:26;100024.94;;;7.80;76.51
33554;BME280;19885;42.208;24.952;2023-02-23T06:42:52;100032.63;;;7.77;76.63
33554;BME280;19885;42.208;24.952;2023-02-23T06:45:17;100040.97;;;8.04;76.51
33554;BME280;19885;42.208;24.952;2023-02-23T06:47:44;100042.09;;;8.17;75.95
33554;BME280;19885;42.208;24.952;2023-02-23T06:50:10;100030.91;;;8.19;75.72
33554;BME280;19885;42.208;24.952;2023-02-23T06:52:36;100037.13;;;8.27;75.77
33554;BME280;19885;42.208;24.952;2023-02-23T06:55:02;100028.50;;;8.27;75.87
33554;BME280;19885;42.208;24.952;2023-02-23T06:57:28;100039.88;;;8.36;75.85
33554;BME280;19885;42.208;24.952;2023-02-23T06:59:53;100046.16;;;8.47;75.79
33554;BME280;19885;42.208;24.952;2023-02-23T07:02:19;100037.91;;;8.70;75.42
33554;BME280;19885;42.208;24.952;2023-02-23T07:04:48;100044.22;;;8.85;74.58
33554;BME280;19885;42.208;24.952;2023-02-23T07:07:14;100026.63;;;9.24;73.71
33554;BME280;19885;42.208;24.952;2023-02-23T07:09:40;100053.53;;;9.89;71.50
33554;BME280;19885;42.208;24.952;2023-02-23T07:12:08;100043.72;;;10.41;68.73
33554;BME280;19885;42.208;24.952;2023-02-23T07:14:33;100036.13;;;10.63;67.18
33554;BME280;19885;42.208;24.952;2023-02-23T07:16:59;100044.31;;;11.07;65.57
33554;BME280;19885;42.208;24.952;2023-02-23T07:19:24;100047.91;;;11.21;64.39
33554;BME280;19885;42.208;24.952;2023-02-23T07:21:51;100052.41;;;11.49;64.75
33554;BME280;19885;42.208;24.952;2023-02-23T07:24:17;100051.78;;;11.81;63.53
33554;BME280;19885;42.208;24.952;2023-02-23T07:26:43;100043.19;;;12.23;62.00
33554;BME280;19885;42.208;24.952;2023-02-23T07:29:11;100043.28;;;12.42;62.75
33554;BME280;19885;42.208;24.952;2023-02-23T07:31:38;99992.50;;;11.68;63.71
33554;BME280;19885;42.208;24.952;2023-02-23T07:34:03;100043.94;;;11.82;63.45
33554;BME280;19885;42.208;24.952;2023-02-23T07:36:31;100043.94;;;11.87;63.60
33554;BME280;19885;42.208;24.952;2023-02-23T07:38:57;100047.25;;;11.56;64.30
33554;BME280;19885;42.208;24.952;2023-02-23T07:41:23;100035.19;;;11.70;64.81
33554;BME280;19885;42.208;24.952;2023-02-23T07:43:49;100039.59;;;11.86;63.82
33554;BME280;19885;42.208;24.952;2023-02-23T07:46:17;100053.25;;;11.39;64.73
33554;BME280;19885;42.208;24.952;2023-02-23T07:48:43;100039.59;;;11.87;66.01
33554;BME280;19885;42.208;24.952;2023-02-23T07:51:13;100043.22;;;12.24;62.73
33554;BME280;19885;42.208;24.952;2023-02-23T07:53:40;100045.06;;;12.73;60.84
33554;BME280;19885;42.208;24.952;2023-02-23T07:56:07;100036.16;;;11.96;63.41
33554;BME280;19885;42.208;24.952;2023-02-23T07:58:36;100040.50;;;11.94;63.02
33554;BME280;19885;42.208;24.952;2023-02-23T08:01:03;100034.56;;;12.55;62.61
33554;BME280;19885;42.208;24.952;2023-02-23T08:03:31;100041.56;;;13.29;58.97
33554;BME280;19885;42.208;24.952;2023-02-23T08:05:57;100038.09;;;13.12;60.39
33554;BME280;19885;42.208;24.952;2023-02-23T08:08:23;100046.81;;;13.11;59.78
33554;BME280;19885;42.208;24.952;2023-02-23T08:10:49;100045.84;;;13.71;58.22
33554;BME280;19885;42.208;24.952;2023-02-23T08:13:15;100051.72;;;14.32;55.19
33554;BME280;19885;42.208;24.952;2023-02-23T08:15:42;100037.03;;;13.94;56.19
33554;BME280;19885;42.208;24.952;2023-02-23T08:18:08;100037.03;;;13.96;56.48
33554;BME280;19885;42.208;24.952;2023-02-23T08:20:34;100033.50;;;14.06;56.53
33554;BME280;19885;42.208;24.952;2023-02-23T08:23:00;100037.41;;;14.79;53.94
33554;BME280;19885;42.208;24.952;2023-02-23T08:25:25;100032.53;;;14.23;56.48
33554;BME280;19885;42.208;24.952;2023-02-23T08:27:53;100038.72;;;14.07;56.13
33554;BME280;19885;42.208;24.952;2023-02-23T08:30:20;100043.81;;;14.39;56.75
33554;BME280;19885;42.208;24.952;2023-02-23T08:32:47;100034.63;;;15.04;54.32
33554;BME280;19885;42.208;24.952;2023-02-23T08:35:13;100041.44;;;15.20;52.61
33554;BME280;19885;42.208;24.952;2023-02-23T08:37:39;100044.75;;;15.46;51.82
33554;BME280;19885;42.208;24.952;2023-02-23T08:40:07;100030.53;;;15.65;50.64
33554;BME280;19885;42.208;24.952;2023-02-23T08:42:33;100041.56;;;15.93;50.37
33554;BME280;19885;42.208;24.952;2023-02-23T08:44:59;99965.53;;;15.81;49.66
33554;BME280;19885;42.208;24.952;2023-02-23T08:47:26;100044.22;;;15.91;51.25
33554;BME280;19885;42.208;24.952;2023-02-23T08:49:52;100040.84;;;15.82;51.57
33554;BME280;19885;42.208;24.952;2023-02-23T08:52:21;100035.88;;;15.56;52.03
33554;BME280;19885;42.208;24.952;2023-02-23T08:54:51;100044.41;;;15.75;51.63
33554;BME280;19885;42.208;24.952;2023-02-23T08:57:16;100027.53;;;15.95;50.44
33554;BME280;19885;42.208;24.952;2023-02-23T08:59:42;100049.81;;;16.34;50.63
33554;BME280;19885;42.208;24.952;2023-02-23T09:02:12;100047.78;;;15.87;50.51
33554;BME280;19885;42.208;24.952;2023-02-23T09:04:38;100000.00;;;15.53;51.84
33554;BME280;19885;42.208;24.952;2023-02-23T09:07:07;100052.19;;;15.84;52.22
33554;BME280;19885;42.208;24.952;2023-02-23T09:09:36;100035.03;;;16.25;51.24
33554;BME280;19885;42.208;24.952;2023-02-23T09:12:02;100042.75;;;15.67;51.62
33554;BME280;19885;42.208;24.952;2023-02-23T09:14:28;100042.34;;;16.02;52.20
33554;BME280;19885;42.208;24.952;2023-02-23T09:16:54;100037.25;;;16.54;50.62
33554;BME280;19885;42.208;24.952;2023-02-23T09:19:19;100034.91;;;16.92;49.90
33554;BME280;19885;42.208;24.952;2023-02-23T09:21:45;100018.69;;;16.01;50.23
33554;BME280;19885;42.208;24.952;2023-02-23T09:24:11;100026.19;;;16.29;50.52
33554;BME280;19885;42.208;24.952;2023-02-23T09:26:38;100032.56;;;16.74;49.12
33554;BME280;19885;42.208;24.952;2023-02-23T09:29:05;100016.72;;;16.77;49.88
33554;BME280;19885;42.208;24.952;2023-02-23T09:31:31;100024.66;;;16.74;50.50
33554;BME280;19885;42.208;24.952;2023-02-23T09:33:57;100017.28;;;16.99;49.34
33554;BME280;19885;42.208;24.952;2023-02-23T09:36:25;100026.13;;;17.42;47.86
33554;BME280;19885;42.208;24.952;2023-02-23T09:38:53;100021.63;;;17.49;45.99
33554;BME280;19885;42.208;24.952;2023-02-23T09:41:48;100022.50;;;17.51;46.86
33554;BME280;19885;42.208;24.952;2023-02-23T09:49:52;100014.44;;;17.09;47.37
33554;BME280;19885;42.208;24.952;2023-02-23T09:52:24;100013.28;;;17.26;47.49
33554;BME280;19885;42.208;24.952;2023-02-23T09:54:51;100007.75;;;16.90;49.22
33554;BME280;19885;42.208;24.952;2023-02-23T09:57:21;100016.81;;;16.73;49.19
33554;BME280;19885;42.208;24.952;2023-02-23T09:59:48;100017.13;;;17.06;50.25
33554;BME280;19885;42.208;24.952;2023-02-23T10:02:53;100012.16;;;17.39;47.73
33554;BME280;19885;42.208;24.952;2023-02-23T10:05:12;100017.91;;;17.62;46.81
33554;BME280;19885;42.208;24.952;2023-02-23T10:08:05;100013.63;;;17.55;47.03
33554;BME280;19885;42.208;24.952;2023-02-23T10:10:50;100006.81;;;17.89;45.52
33554;BME280;19885;42.208;24.952;2023-02-23T10:18:48;100002.41;;;18.29;46.29
33554;BME280;19885;42.208;24.952;2023-02-23T10:21:37;99995.53;;;18.22;46.64
33554;BME280;19885;42.208;24.952;2023-02-23T10:26:50;99975.94;;;17.93;47.50
33554;BME280;19885;42.208;24.952;2023-02-23T10:29:31;99993.66;;;17.42;48.99
33554;BME280;19885;42.208;24.952;2023-02-23T10:34:39;99982.31;;;16.89;50.02
33554;BME280;19885;42.208;24.952;2023-02-23T10:37:05;99982.09;;;16.48;49.67
33554;BME280;19885;42.208;24.952;2023-02-23T10:39:34;99971.22;;;17.20;50.22
33554;BME280;19885;42.208;24.952;2023-02-23T10:42:05;99961.03;;;17.47;48.54
33554;BME280;19885;42.208;24.952;2023-02-23T10:44:32;99971.75;;;17.38;48.31
33554;BME280;19885;42.208;24.952;2023-02-23T10:47:07;99972.50;;;17.45;49.84
33554;BME280;19885;42.208;24.952;2023-02-23T10:49:43;99965.31;;;17.54;48.54
33554;BME280;19885;42.208;24.952;2023-02-23T10:52:17;99963.69;;;17.90;49.39
33554;BME280;19885;42.208;24.952;2023-02-23T10:54:46;99961.63;;;17.63;48.33
33554;BME280;19885;42.208;24.952;2023-02-23T10:57:25;99966.47;;;17.40;51.05
33554;BME280;19885;42.208;24.952;2023-02-23T11:00:21;99964.59;;;17.45;49.38
33554;BME280;19885;42.208;24.952;2023-02-23T11:02:52;99960.59;;;17.26;50.04
33554;BME280;19885;42.208;24.952;2023-02-23T11:05:33;99963.94;;;17.79;48.15
33554;BME280;19885;42.208;24.952;2023-02-23T11:08:32;99957.72;;;17.82;48.01
33554;BME280;19885;42.208;24.952;2023-02-23T11:13:39;99965.22;;;17.59;49.86
33554;BME280;19885;42.208;24.952;2023-02-23T11:16:13;99939.84;;;16.59;52.24
33554;BME280;19885;42.208;24.952;2023-02-23T11:19:17;99960.25;;;16.96;52.70
33554;BME280;19885;42.208;24.952;2023-02-23T11:21:36;99944.34;;;17.02;52.77
33554;BME280;19885;42.208;24.952;2023-02-23T11:26:49;99938.84;;;16.67;54.44
33554;BME280;19885;42.208;24.952;2023-02-23T11:29:45;99942.44;;;16.62;53.18
33554;BME280;19885;42.208;24.952;2023-02-23T11:32:15;99933.00;;;16.46;53.18
33554;BME280;19885;42.208;24.952;2023-02-23T11:34:41;99953.03;;;16.57;54.55
33554;BME280;19885;42.208;24.952;2023-02-23T11:40:00;99947.38;;;16.80;54.04
33554;BME280;19885;42.208;24.952;2023-02-23T11:42:31;99950.53;;;17.00;52.63
33554;BME280;19885;42.208;24.952;2023-02-23T11:47:31;99949.25;;;16.73;54.25
33554;BME280;19885;42.208;24.952;2023-02-23T11:50:00;99931.97;;;16.57;54.97
33554;BME280;19885;42.208;24.952;2023-02-23T11:52:28;99943.84;;;16.82;53.51
33554;BME280;19885;42.208;24.952;2023-02-23T11:54:57;99953.84;;;16.00;56.09
33554;BME280;19885;42.208;24.952;2023-02-23T11:57:28;99946.06;;;15.94;57.20
33554;BME280;19885;42.208;24.952;2023-02-23T11:59:59;99943.53;;;15.88;57.40
33554;BME280;19885;42.208;24.952;2023-02-23T12:02:28;99948.41;;;16.15;56.41
33554;BME280;19885;42.208;24.952;2023-02-23T12:07:39;99937.59;;;15.70;58.28
33554;BME280;19885;42.208;24.952;2023-02-23T12:10:25;99931.84;;;15.40;59.49
33554;BME280;19885;42.208;24.952;2023-02-23T12:15:56;99941.56;;;16.02;57.17
33554;BME280;19885;42.208;24.952;2023-02-23T12:24:18;99942.91;;;16.30;57.55
33554;BME280;19885;42.208;24.952;2023-02-23T12:27:20;99935.66;;;15.88;57.45
33554;BME280;19885;42.208;24.952;2023-02-23T12:30:49;99948.59;;;16.00;57.75
33554;BME280;19885;42.208;24.952;2023-02-23T12:33:01;99944.03;;;15.48;59.68
33554;BME280;19885;42.208;24.952;2023-02-23T12:35:45;99943.66;;;14.98;61.90
33554;BME280;19885;42.208;24.952;2023-02-23T12:41:10;99953.00;;;15.25;59.90
33554;BME280;19885;42.208;24.952;2023-02-23T12:43:44;99948.72;;;15.16;60.79
33554;BME280;19885;42.208;24.952;2023-02-23T12:46:23;99961.31;;;14.82;61.49
33554;BME280;19885;42.208;24.952;2023-02-23T12:51:32;99962.03;;;14.98;61.50
33554;BME280;19885;42.208;24.952;2023-02-23T12:53:59;99954.56;;;14.56;62.45
33554;BME280;19885;42.208;24.952;2023-02-23T12:56:49;99944.84;;;14.64;62.60
33554;BME280;19885;42.208;24.952;2023-02-23T13:02:37;99970.69;;;13.86;67.01
33554;BME280;19885;42.208;24.952;2023-02-23T13:05:32;99967.88;;;14.24;65.63
33554;BME280;19885;42.208;24.952;2023-02-23T13:10:54;99967.16;;;13.93;66.75
33554;BME280;19885;42.208;24.952;2023-02-23T13:29:23;99963.66;;;13.96;66.04
33554;BME280;19885;42.208;24.952;2023-02-23T13:31:51;99963.72;;;13.84;65.96
33554;BME280;19885;42.208;24.952;2023-02-23T13:34:32;99963.69;;;13.87;66.74
33554;BME280;19885;42.208;24.952;2023-02-23T13:37:02;99945.38;;;13.79;66.68
33554;BME280;19885;42.208;24.952;2023-02-23T13:48:06;99975.03;;;13.90;66.12
33554;BME280;19885;42.208;24.952;2023-02-23T13:55:59;99973.50;;;13.41;68.61
33554;BME280;19885;42.208;24.952;2023-02-23T13:58:28;99971.78;;;13.35;68.28
33554;BME280;19885;42.208;24.952;2023-02-23T14:01:15;99978.66;;;13.59;66.88
33554;BME280;19885;42.208;24.952;2023-02-23T14:04:01;99979.63;;;13.35;67.29
33554;BME280;19885;42.208;24.952;2023-02-23T14:06:30;99982.25;;;13.28;67.85
33554;BME280;19885;42.208;24.952;2023-02-23T14:09:18;99987.50;;;13.04;69.50
33554;BME280;19885;42.208;24.952;2023-02-23T14:12:10;99982.28;;;13.01;70.22
33554;BME280;19885;42.208;24.952;2023-02-23T14:14:42;99991.84;;;13.20;69.28
33554;BME280;19885;42.208;24.952;2023-02-23T14:17:54;100000.59;;;13.26;69.18
33554;BME280;19885;42.208;24.952;2023-02-23T14:22:35;99995.38;;;12.87;70.71
33554;BME280;19885;42.208;24.952;2023-02-23T14:28:03;99997.13;;;13.08;69.78
33554;BME280;19885;42.208;24.952;2023-02-23T14:30:49;99993.59;;;12.77;71.14
33554;BME280;19885;42.208;24.952;2023-02-23T14:36:01;99997.97;;;12.49;72.03
33554;BME280;19885;42.208;24.952;2023-02-23T14:38:33;99987.47;;;12.31;72.97
33554;BME280;19885;42.208;24.952;2023-02-23T14:41:03;99980.53;;;12.42;72.41
33554;BME280;19885;42.208;24.952;2023-02-23T14:46:20;99996.19;;;12.24;72.60
33554;BME280;19885;42.208;24.952;2023-02-23T14:49:05;99997.91;;;12.22;73.51
33554;BME280;19885;42.208;24.952;2023-02-23T14:51:44;99998.78;;;12.27;72.82
33554;BME280;19885;42.208;24.952;2023-02-23T14:54:26;99953.47;;;12.05;72.56
33554;BME280;19885;42.208;24.952;2023-02-23T14:56:55;100012.75;;;12.22;72.77
33554;BME280;19885;42.208;24.952;2023-02-23T14:59:28;100002.25;;;12.20;72.40
33554;BME280;19885;42.208;24.952;2023-02-23T15:01:58;99929.06;;;11.87;72.08
33554;BME280;19885;42.208;24.952;2023-02-23T15:04:27;100007.56;;;12.59;71.11
33554;BME280;19885;42.208;24.952;2023-02-23T15:06:57;100005.78;;;12.37;71.94
33554;BME280;19885;42.208;24.952;2023-02-23T15:09:39;100025.72;;;12.06;73.12
33554;BME280;19885;42.208;24.952;2023-02-23T15:12:19;100018.72;;;11.95;74.15
33554;BME280;19885;42.208;24.952;2023-02-23T15:14:47;100020.50;;;11.99;73.57
33554;BME280;19885;42.208;24.952;2023-02-23T15:17:20;100021.34;;;11.99;73.65
33554;BME280;19885;42.208;24.952;2023-02-23T15:19:51;100021.38;;;11.96;74.34